• Join FlightAware (Why Join?)
  • Login
  • US Flag GB Flag 
10:43 EST


 

Airport Tracker/Info


-or-


 

Live Flight TrackerFlight Track Log ✈ SKW4632 ✈ 24-Aug-2013 ✈ KMSO - KSLC

Flight Track Log - Related Links

Times and Time Zones

All times are in EDT time to prevent confusion due to time zone crossing. See the SKW4632 flight status page for this flight to view local times or setup timezone preferences in your user account.

Time Position Orientation Groundspeed Altitude Reporting Facility
EDT Latitude Longitude Course Direction KTS MPH feet Rate Location/Type
16:43 46.9375 -114.1278 180° South 177 204 4,200  Level Salt Lake Center
16:44 46.9733 -114.1903 310° West 197 227 5,800 1,920 Climbing Salt Lake Center
16:45 47.0192 -114.2708 310° West 234 269 8,200 2,160 Climbing Salt Lake Center
16:46 46.6684 -113.9958 180° South  Level Estimated
16:46 46.9842 -114.3392 233° Southwest 240 276 10,300  Level Salt Lake Center
16:47 46.5923 -114.0521 207° Southwest  Level FlightAware Approximate
16:47 46.9078 -114.3447 183° South 259 298 11,900  Level Salt Lake Center
16:48 46.5098 -114.0196 180° South  Level Estimated
16:48 46.8278 -114.3322 174° South 290 334 13,600  Level Salt Lake Center
16:49 46.7411 -114.3111 171° South 294 338 15,500 1,680 Climbing Salt Lake Center
16:50 46.6597 -114.2794 165° South 302 348 17,100 1,440 Climbing Salt Lake Center
16:51 46.5750 -114.2475 165° South 314 361 18,500 1,380 Climbing Salt Lake Center
16:52 46.4797 -114.2531 182° South 322 371 20,000 1,260 Climbing Salt Lake Center
16:53 46.4017 -114.2650 186° South 325 374 21,200 1,020 Climbing Salt Lake Center
16:54 46.3131 -114.2733 184° South 321 369 22,200 1,140 Climbing Salt Lake Center
16:56 46.2033 -114.2253 163° South 341 392 23,600 1,080 Climbing Salt Lake Center
16:57 46.1108 -114.1867 164° South 345 397 24,500 840 Climbing Salt Lake Center
16:58 46.0172 -114.1506 165° South 349 402 25,400 720 Climbing Salt Lake Center
16:59 45.9197 -114.1119 165° South 359 413 26,000 660 Climbing Salt Lake Center
17:00 45.8258 -114.0558 157° South 367 422 26,800 780 Climbing Salt Lake Center
17:01 45.7561 -113.9361 130° Southeast 387 445 27,700 780 Climbing Salt Lake Center
17:02 45.6836 -113.8250 133° Southeast 386 444 28,500 720 Climbing Salt Lake Center
17:03 45.6011 -113.7072 135° Southeast 384 442 29,300 720 Climbing Salt Lake Center
17:04 45.5144 -113.5922 137° Southeast 382 440 30,000 540 Climbing Salt Lake Center
17:05 45.4386 -113.4944 138° Southeast 384 442 30,500 480 Climbing Salt Lake Center
17:06 45.3467 -113.3844 140° Southeast 387 445 31,000 240 Climbing Salt Lake Center
17:07 45.2681 -113.2875 139° Southeast 389 448 31,000  Level Salt Lake Center
17:08 45.1708 -113.1753 141° Southeast 398 458 31,000  Level Salt Lake Center
17:09 45.0792 -113.0931 148° Southeast 405 466 31,000  Level Salt Lake Center
17:10 44.9556 -113.0786 175° South 401 461 31,000  Level Salt Lake Center
17:11 44.8519 -113.0592 172° South 396 456 31,000  Level Salt Lake Center
17:12 44.7497 -113.0419 173° South 392 451 31,000  Level Salt Lake Center
17:13 44.6306 -113.0197 172° South 390 449 31,000  Level Salt Lake Center
17:14 44.5303 -113.0028 173° South 386 444 31,000  Level Salt Lake Center
17:15 44.4125 -112.9811 173° South 384 442 31,000  Level Salt Lake Center
17:16 44.3114 -112.9525 169° South 386 444 31,000 -300 Level Salt Lake Center
17:17 44.1978 -112.8797 155° Southeast 401 461 30,400 -540 Descending Salt Lake Center
17:18 44.0958 -112.8208 157° South 410 472 30,000 -240 Descending Salt Lake Center
17:19 43.9775 -112.7644 161° South 407 468 30,000  Level Salt Lake Center
17:20 43.8772 -112.7178 161° South 402 463 30,000  Level Salt Lake Center
17:21 43.7619 -112.6539 158° South 400 460 30,000  Level Salt Lake Center
17:22 43.6647 -112.5936 156° South 400 460 30,000  Level Salt Lake Center
17:23 43.5689 -112.5342 156° South 398 458 30,000  Level Salt Lake Center
17:24 43.4564 -112.4633 155° Southeast 398 458 30,000  Level Salt Lake Center
17:25 43.3561 -112.4606 179° South 380 437 30,000  Level Salt Lake Center
17:26 43.2392 -112.4233 167° South 387 445 30,000  Level Salt Lake Center
17:27 43.1397 -112.3811 163° South 391 450 30,100  Climbing Salt Lake Center
17:28 43.0222 -112.3292 162° South 397 457 30,000 -60 Descending Salt Lake Center
17:29 42.9219 -112.3386 184° South 379 436 30,000  Level Salt Lake Center
17:31 42.8058 -112.3508 184° South 376 433 30,000  Level Salt Lake Center
17:32 42.7069 -112.3611 184° South 373 429 30,000  Level Salt Lake Center
17:33 42.6133 -112.3731 185° South 371 427 30,000 -540 Level Salt Lake Center
17:34 42.4936 -112.3842 184° South 360 414 28,900 -1,080 Descending Salt Lake Center
17:35 42.3983 -112.3958 185° South 347 399 27,800 -1,200 Descending Salt Lake Center
17:36 42.3047 -112.4064 185° South 340 391 26,500 -1,260 Descending Salt Lake Center
17:37 42.2214 -112.4569 204° Southwest 331 381 25,300 -780 Descending Salt Lake Center
17:38 42.1419 -112.5097 206° Southwest 322 371 25,000 -180 Descending Salt Lake Center
17:39 42.0647 -112.5639 208° Southwest 313 360 25,000  Level Salt Lake Center
17:40 41.9722 -112.6264 207° Southwest 312 359 25,000 -780 Level Salt Lake Center
17:41 41.8956 -112.6797 207° Southwest 313 360 23,500 -1,560 Descending Salt Lake Center
17:42 41.8089 -112.6667 174° South 334 384 21,800 -1,740 Descending Salt Lake Center
17:43 41.7247 -112.6142 155° Southeast 336 387 20,000 -1,860 Descending Salt Lake Center
17:43 41.6736 -112.5728 149° Southeast 329 379 18,800 -1,920 Descending Salt Lake Center
17:45 41.5589 -112.4997 155° Southeast 315 362 16,200 -1,200 Descending Salt Lake Center
17:46 41.4975 -112.4489 148° Southeast 295 339 16,100 -600 Descending Salt Lake Center
17:47 41.4372 -112.3692 135° Southeast 302 348 15,100 -1,020 Descending Salt Lake Center
17:48 41.3783 -112.2861 133° Southeast 308 354 14,100 -960 Descending Salt Lake Center
17:49 41.3214 -112.2025 132° Southeast 304 350 13,200 -960 Descending Salt Lake Center
17:50 41.2650 -112.1219 133° Southeast 298 343 12,200 -1,020 Descending Salt Lake Center
17:51 41.2083 -112.0414 133° Southeast 297 342 11,200 -1,020 Descending Salt Lake Center
17:52 41.1339 -112.0128 164° South 287 330 10,200 -840 Descending Salt Lake Center
17:53 41.0594 -112.0067 176° South 252 290 9,500 -660 Descending Salt Lake Center
17:54 40.9978 -111.9994 175° South 222 255 8,900 -840 Descending Salt Lake Center
17:55 40.9472 -111.9939 175° South 179 206 7,900 -1,320 Descending Salt Lake Center
17:56 40.9006 -111.9869 174° South 171 197 6,300 -1,380 Descending Salt Lake Center
17:57 40.8611 -111.9833 176° South 158 182 5,300 -900 Descending Salt Lake Center
17:58 40.8217 -111.9797 176° South 143 165 4,600 -720 Descending Salt Lake Center